IGO376 VAPO-VECC
Flight info
| Callsign | IGO376 |
|---|---|
| Flight time | N/A |
| Altitude | 35000 |
| Route | OPAKA2A OPAKA G450 JJS JJS2G |
| Aircraft | A321/M-SDE3FGHIRWY/LB1 |
Departure
| Time | 2026-05-04 11:26 |
|---|---|
| Airport | Pune International Airport (VAPO) |
Arrival
| Time | N/A |
|---|---|
| Airport | Netaji Subhash Chandra Bose International Airport (VECC) |
| Time | Latitude | Longitude | Altitude | Speed | Heading |
|---|---|---|---|---|---|
| 2026-05-04 10:08 | 18.58005 | 73.90839 | 1925 ft | 0 kts | 189° |
| 2026-05-04 10:19 | 18.58005 | 73.90840 | 1925 ft | 0 kts | 189° |
| 2026-05-04 10:35 | 18.58006 | 73.90840 | 1925 ft | 0 kts | 189° |
| 2026-05-04 11:01 | 18.58085 | 73.90830 | 1925 ft | 2 kts | 149° |
| 2026-05-04 11:02 | 18.58089 | 73.90827 | 1925 ft | 1 kts | 149° |
| 2026-05-04 11:05 | 18.58105 | 73.91354 | 1927 ft | 14 kts | 94° |
| 2026-05-04 11:06 | 18.58099 | 73.91471 | 1928 ft | 18 kts | 92° |
| 2026-05-04 11:06 | 18.58091 | 73.91612 | 1929 ft | 21 kts | 94° |
| 2026-05-04 11:06 | 18.58079 | 73.91774 | 1930 ft | 24 kts | 94° |
| 2026-05-04 11:06 | 18.58068 | 73.91952 | 1930 ft | 24 kts | 93° |
| 2026-05-04 11:08 | 18.58007 | 73.92934 | 1935 ft | 0 kts | 91° |
| 2026-05-04 11:12 | 18.58062 | 73.93001 | 1935 ft | 4 kts | 5° |
| 2026-05-04 11:12 | 18.58069 | 73.93002 | 1935 ft | 0 kts | 5° |
| 2026-05-04 11:14 | 18.58072 | 73.93002 | 1935 ft | 1 kts | 5° |
| 2026-05-04 11:16 | 18.58165 | 73.92954 | 1936 ft | 0 kts | 274° |
| 2026-05-04 11:25 | 18.58166 | 73.92937 | 1938 ft | 13 kts | 274° |
| 2026-05-04 11:25 | 18.58187 | 73.92603 | 1934 ft | 81 kts | 274° |
| 2026-05-04 11:25 | 18.58239 | 73.91779 | 1928 ft | 142 kts | 274° |
| 2026-05-04 11:26 | 18.58360 | 73.89480 | 2953 ft | 155 kts | 272° |
| 2026-05-04 11:27 | 18.59853 | 73.80048 | 5965 ft | 210 kts | 304° |
| 2026-05-04 11:28 | 18.60832 | 73.78878 | 6249 ft | 215 kts | 316° |
| 2026-05-04 11:28 | 18.62067 | 73.77952 | 6529 ft | 223 kts | 329° |
| 2026-05-04 11:28 | 18.63566 | 73.77347 | 6733 ft | 241 kts | 345° |
| 2026-05-04 11:28 | 18.65296 | 73.77190 | 7037 ft | 258 kts | 1° |
| 2026-05-04 11:29 | 18.67079 | 73.77565 | 7437 ft | 272 kts | 15° |
| 2026-05-04 11:29 | 18.68811 | 73.78512 | 7898 ft | 285 kts | 33° |
| 2026-05-04 11:29 | 18.70221 | 73.79994 | 8370 ft | 296 kts | 51° |
| 2026-05-04 11:29 | 18.71193 | 73.81940 | 8873 ft | 306 kts | 69° |
| 2026-05-04 11:31 | 18.76364 | 73.96577 | 12056 ft | 337 kts | 41° |
| 2026-05-04 11:33 | 18.87775 | 74.10287 | 15221 ft | 366 kts | 49° |
| 2026-05-04 11:33 | 18.89365 | 74.12411 | 15693 ft | 369 kts | 49° |
| 2026-05-04 11:33 | 18.90964 | 74.14533 | 16157 ft | 371 kts | 49° |
| 2026-05-04 11:34 | 18.92579 | 74.16663 | 16628 ft | 373 kts | 48° |
| 2026-05-04 11:34 | 18.94219 | 74.18817 | 17100 ft | 376 kts | 48° |
| 2026-05-04 11:34 | 18.95869 | 74.20981 | 17560 ft | 379 kts | 48° |
| 2026-05-04 11:34 | 18.97535 | 74.23159 | 18032 ft | 382 kts | 48° |
| 2026-05-04 11:35 | 18.99198 | 74.25343 | 18454 ft | 384 kts | 49° |
| 2026-05-04 11:35 | 19.00881 | 74.27556 | 18849 ft | 387 kts | 49° |
| 2026-05-04 11:35 | 19.02570 | 74.29776 | 19226 ft | 390 kts | 49° |
| 2026-05-04 11:35 | 19.04280 | 74.32021 | 19596 ft | 392 kts | 49° |
| 2026-05-04 11:36 | 19.05997 | 74.34280 | 19969 ft | 395 kts | 49° |
| 2026-05-04 11:36 | 19.07721 | 74.36554 | 20336 ft | 398 kts | 49° |
| 2026-05-04 11:36 | 19.09459 | 74.38847 | 20707 ft | 401 kts | 49° |
| 2026-05-04 11:36 | 19.11211 | 74.41154 | 21058 ft | 403 kts | 49° |
| 2026-05-04 11:37 | 19.12975 | 74.43472 | 21408 ft | 406 kts | 49° |
| 2026-05-04 11:37 | 19.14750 | 74.45805 | 21736 ft | 409 kts | 49° |
| 2026-05-04 11:37 | 19.16537 | 74.48161 | 22061 ft | 411 kts | 49° |
| 2026-05-04 11:37 | 19.18321 | 74.50516 | 22396 ft | 413 kts | 49° |
| 2026-05-04 11:38 | 19.20133 | 74.52914 | 22725 ft | 416 kts | 49° |
| 2026-05-04 11:38 | 19.21947 | 74.55313 | 23040 ft | 418 kts | 50° |
| 2026-05-04 11:38 | 19.23771 | 74.57721 | 23363 ft | 420 kts | 49° |
| 2026-05-04 11:38 | 19.25604 | 74.60141 | 23621 ft | 422 kts | 49° |
| 2026-05-04 11:39 | 19.27444 | 74.62570 | 23890 ft | 424 kts | 49° |
| 2026-05-04 11:39 | 19.29298 | 74.65019 | 24143 ft | 426 kts | 50° |
| 2026-05-04 11:40 | 19.40335 | 74.79638 | 25597 ft | 436 kts | 49° |
| 2026-05-04 11:41 | 19.42236 | 74.82152 | 25828 ft | 438 kts | 49° |
| 2026-05-04 11:41 | 19.44145 | 74.84681 | 26068 ft | 440 kts | 49° |
| 2026-05-04 11:41 | 19.46080 | 74.87248 | 26291 ft | 442 kts | 50° |
| 2026-05-04 11:41 | 19.48039 | 74.89852 | 26513 ft | 444 kts | 50° |
| 2026-05-04 11:42 | 19.49962 | 74.92408 | 26737 ft | 446 kts | 50° |
| 2026-05-04 11:42 | 19.51244 | 74.94109 | 26885 ft | 447 kts | 49° |
| 2026-05-04 11:42 | 19.53458 | 74.97047 | 27135 ft | 449 kts | 50° |
| 2026-05-04 11:42 | 19.55443 | 74.99694 | 27348 ft | 451 kts | 50° |
| 2026-05-04 11:43 | 19.57396 | 75.02296 | 27549 ft | 453 kts | 50° |
| 2026-05-04 11:43 | 19.59370 | 75.04920 | 27758 ft | 455 kts | 49° |
| 2026-05-04 11:43 | 19.61345 | 75.07544 | 27955 ft | 457 kts | 49° |
| 2026-05-04 11:43 | 19.63330 | 75.10186 | 28185 ft | 459 kts | 50° |
| 2026-05-04 11:44 | 19.65323 | 75.12844 | 28403 ft | 460 kts | 50° |
| 2026-05-04 11:44 | 19.67298 | 75.15478 | 28595 ft | 462 kts | 50° |
| 2026-05-04 11:44 | 19.69300 | 75.18151 | 28795 ft | 464 kts | 50° |
| 2026-05-04 11:44 | 19.71311 | 75.20836 | 28980 ft | 466 kts | 49° |
| 2026-05-04 11:45 | 19.73331 | 75.23531 | 29163 ft | 467 kts | 49° |
| 2026-05-04 11:45 | 19.75362 | 75.26241 | 29325 ft | 469 kts | 49° |
| 2026-05-04 11:45 | 19.77393 | 75.28957 | 29505 ft | 471 kts | 50° |
| 2026-05-04 11:45 | 19.79437 | 75.31693 | 29670 ft | 472 kts | 50° |
| 2026-05-04 11:46 | 19.81478 | 75.34428 | 29829 ft | 474 kts | 49° |
| 2026-05-04 11:46 | 19.83534 | 75.37178 | 29970 ft | 475 kts | 49° |
| 2026-05-04 11:46 | 19.85488 | 75.40027 | 30110 ft | 478 kts | 57° |
| 2026-05-04 11:46 | 19.87017 | 75.43161 | 30235 ft | 482 kts | 66° |
| 2026-05-04 11:47 | 19.88226 | 75.46495 | 30373 ft | 483 kts | 68° |
| 2026-05-04 11:47 | 19.89431 | 75.49844 | 30520 ft | 484 kts | 68° |
| 2026-05-04 11:47 | 19.90643 | 75.53193 | 30663 ft | 485 kts | 68° |
| 2026-05-04 11:47 | 19.91860 | 75.56542 | 30810 ft | 487 kts | 68° |
| 2026-05-04 11:48 | 19.93099 | 75.59955 | 30940 ft | 488 kts | 68° |
| 2026-05-04 11:48 | 19.94324 | 75.63340 | 31074 ft | 490 kts | 68° |
| 2026-05-04 11:48 | 19.95555 | 75.66752 | 31251 ft | 489 kts | 68° |
| 2026-05-04 11:48 | 19.96768 | 75.70126 | 31459 ft | 489 kts | 68° |
| 2026-05-04 11:49 | 19.97975 | 75.73483 | 31636 ft | 489 kts | 68° |
| 2026-05-04 11:49 | 19.99200 | 75.76891 | 31833 ft | 488 kts | 68° |
| 2026-05-04 11:49 | 20.00413 | 75.80264 | 32036 ft | 488 kts | 68° |
| 2026-05-04 11:49 | 20.01628 | 75.83639 | 32229 ft | 488 kts | 68° |
| 2026-05-04 11:50 | 20.02840 | 75.87003 | 32427 ft | 487 kts | 68° |
| 2026-05-04 11:50 | 20.04056 | 75.90380 | 32619 ft | 487 kts | 68° |
| 2026-05-04 11:50 | 20.05267 | 75.93746 | 32810 ft | 487 kts | 68° |
| 2026-05-04 11:50 | 20.06472 | 75.97107 | 33001 ft | 487 kts | 68° |
| 2026-05-04 11:51 | 20.07676 | 76.00466 | 33199 ft | 486 kts | 68° |
| 2026-05-04 11:51 | 20.08879 | 76.03819 | 33368 ft | 486 kts | 67° |
| 2026-05-04 11:51 | 20.10104 | 76.07231 | 33574 ft | 486 kts | 68° |
| 2026-05-04 11:51 | 20.11310 | 76.10597 | 33756 ft | 485 kts | 68° |
| 2026-05-04 11:52 | 20.12512 | 76.13961 | 33920 ft | 485 kts | 68° |
| 2026-05-04 11:52 | 20.13705 | 76.17307 | 34076 ft | 485 kts | 68° |
| 2026-05-04 11:52 | 20.14895 | 76.20647 | 34232 ft | 484 kts | 68° |
| 2026-05-04 11:52 | 20.16111 | 76.24061 | 34388 ft | 484 kts | 68° |
| 2026-05-04 11:53 | 20.17307 | 76.27415 | 34541 ft | 484 kts | 68° |
| 2026-05-04 11:53 | 20.18502 | 76.30766 | 34705 ft | 483 kts | 68° |
| 2026-05-04 11:53 | 20.19688 | 76.34097 | 34779 ft | 478 kts | 68° |
| 2026-05-04 11:55 | 20.28929 | 76.60115 | 34774 ft | 467 kts | 68° |
| 2026-05-04 11:56 | 20.31223 | 76.66595 | 34776 ft | 468 kts | 68° |
| 2026-05-04 11:56 | 20.33519 | 76.73088 | 34768 ft | 468 kts | 68° |
| 2026-05-04 11:57 | 20.35813 | 76.79595 | 34773 ft | 468 kts | 68° |
| 2026-05-04 11:57 | 20.38042 | 76.86065 | 34766 ft | 468 kts | 70° |
| 2026-05-04 11:58 | 20.40051 | 76.92667 | 34762 ft | 469 kts | 71° |
| 2026-05-04 11:58 | 20.41979 | 76.99323 | 34763 ft | 469 kts | 71° |
| 2026-05-04 11:59 | 20.43955 | 77.06008 | 34758 ft | 471 kts | 71° |
| 2026-05-04 11:59 | 20.45992 | 77.12714 | 34762 ft | 480 kts | 71° |
| 2026-05-04 12:00 | 20.47718 | 77.18375 | 34751 ft | 486 kts | 71° |
| 2026-05-04 12:00 | 20.49806 | 77.25303 | 34753 ft | 493 kts | 71° |
| 2026-05-04 12:01 | 20.51903 | 77.32309 | 34745 ft | 495 kts | 71° |